sensor_id;sensor_type;location;lat;lon;timestamp;temperature;humidity
20700;DHT22;10511;51.232;9.420;2022-10-18T00:00:11;16.40;99.90
20700;DHT22;10511;51.232;9.420;2022-10-18T00:02:38;16.30;99.90
20700;DHT22;10511;51.232;9.420;2022-10-18T00:05:07;16.30;99.90
20700;DHT22;10511;51.232;9.420;2022-10-18T00:07:34;16.40;99.90
20700;DHT22;10511;51.232;9.420;2022-10-18T00:10:02;16.40;99.90
20700;DHT22;10511;51.232;9.420;2022-10-18T00:12:31;16.30;99.90
20700;DHT22;10511;51.232;9.420;2022-10-18T00:14:58;16.30;99.90
20700;DHT22;10511;51.232;9.420;2022-10-18T00:17:25;16.30;99.90
20700;DHT22;10511;51.232;9.420;2022-10-18T00:19:52;16.30;99.90
20700;DHT22;10511;51.232;9.420;2022-10-18T00:22:21;16.20;99.90
20700;DHT22;10511;51.232;9.420;2022-10-18T00:24:48;16.20;99.90
20700;DHT22;10511;51.232;9.420;2022-10-18T00:27:15;16.20;99.90
20700;DHT22;10511;51.232;9.420;2022-10-18T00:29:42;16.20;99.90
20700;DHT22;10511;51.232;9.420;2022-10-18T00:32:09;16.20;99.90
20700;DHT22;10511;51.232;9.420;2022-10-18T00:34:37;16.20;99.90
20700;DHT22;10511;51.232;9.420;2022-10-18T00:37:04;16.20;99.90
20700;DHT22;10511;51.232;9.420;2022-10-18T00:39:32;16.20;99.90
20700;DHT22;10511;51.232;9.420;2022-10-18T00:41:59;16.20;99.90
20700;DHT22;10511;51.232;9.420;2022-10-18T00:45:00;16.20;99.90
20700;DHT22;10511;51.232;9.420;2022-10-18T00:47:27;16.20;99.90
20700;DHT22;10511;51.232;9.420;2022-10-18T00:49:56;16.20;99.90
20700;DHT22;10511;51.232;9.420;2022-10-18T00:52:28;16.20;99.90
20700;DHT22;10511;51.232;9.420;2022-10-18T00:54:57;16.20;99.90
20700;DHT22;10511;51.232;9.420;2022-10-18T00:57:25;16.20;99.90
20700;DHT22;10511;51.232;9.420;2022-10-18T00:59:52;16.20;99.90
20700;DHT22;10511;51.232;9.420;2022-10-18T01:02:20;16.20;99.90
20700;DHT22;10511;51.232;9.420;2022-10-18T01:04:47;16.10;99.90
20700;DHT22;10511;51.232;9.420;2022-10-18T01:07:31;16.10;99.90
20700;DHT22;10511;51.232;9.420;2022-10-18T01:10:08;16.10;99.90
20700;DHT22;10511;51.232;9.420;2022-10-18T01:12:46;16.10;99.90
20700;DHT22;10511;51.232;9.420;2022-10-18T01:15:18;16.00;99.90
20700;DHT22;10511;51.232;9.420;2022-10-18T01:17:54;16.00;99.90
20700;DHT22;10511;51.232;9.420;2022-10-18T01:23:18;16.00;99.90
20700;DHT22;10511;51.232;9.420;2022-10-18T01:25:55;16.00;99.90
20700;DHT22;10511;51.232;9.420;2022-10-18T01:28:34;16.00;99.90
20700;DHT22;10511;51.232;9.420;2022-10-18T01:31:08;16.00;99.90
20700;DHT22;10511;51.232;9.420;2022-10-18T01:33:40;15.90;99.90
20700;DHT22;10511;51.232;9.420;2022-10-18T01:36:14;15.90;99.90
20700;DHT22;10511;51.232;9.420;2022-10-18T01:38:43;15.90;99.90
20700;DHT22;10511;51.232;9.420;2022-10-18T01:41:12;15.80;99.90
20700;DHT22;10511;51.232;9.420;2022-10-18T01:43:42;15.80;99.90
20700;DHT22;10511;51.232;9.420;2022-10-18T01:46:13;15.70;99.90
20700;DHT22;10511;51.232;9.420;2022-10-18T01:48:41;15.70;99.90
20700;DHT22;10511;51.232;9.420;2022-10-18T01:51:09;15.70;99.90
20700;DHT22;10511;51.232;9.420;2022-10-18T01:53:36;15.60;99.90
20700;DHT22;10511;51.232;9.420;2022-10-18T01:56:20;15.60;99.90
20700;DHT22;10511;51.232;9.420;2022-10-18T01:58:57;15.60;99.90
20700;DHT22;10511;51.232;9.420;2022-10-18T02:01:36;15.50;99.90
20700;DHT22;10511;51.232;9.420;2022-10-18T02:04:11;15.50;99.90
20700;DHT22;10511;51.232;9.420;2022-10-18T02:06:44;15.50;99.90
20700;DHT22;10511;51.232;9.420;2022-10-18T02:09:18;15.50;99.90
20700;DHT22;10511;51.232;9.420;2022-10-18T02:11:51;15.40;99.90
20700;DHT22;10511;51.232;9.420;2022-10-18T02:14:22;15.40;99.90
20700;DHT22;10511;51.232;9.420;2022-10-18T02:16:54;15.40;99.90
20700;DHT22;10511;51.232;9.420;2022-10-18T02:19:25;15.30;99.90
20700;DHT22;10511;51.232;9.420;2022-10-18T02:21:55;15.30;99.90
20700;DHT22;10511;51.232;9.420;2022-10-18T02:24:29;15.20;99.90
20700;DHT22;10511;51.232;9.420;2022-10-18T02:26:57;15.20;99.90
20700;DHT22;10511;51.232;9.420;2022-10-18T02:29:24;15.10;99.90
20700;DHT22;10511;51.232;9.420;2022-10-18T02:31:55;15.10;99.90
20700;DHT22;10511;51.232;9.420;2022-10-18T02:34:29;15.00;99.90
20700;DHT22;10511;51.232;9.420;2022-10-18T02:36:59;15.00;99.90
20700;DHT22;10511;51.232;9.420;2022-10-18T02:39:31;15.00;99.90
20700;DHT22;10511;51.232;9.420;2022-10-18T02:41:59;15.00;99.90
20700;DHT22;10511;51.232;9.420;2022-10-18T02:44:26;15.00;99.90
20700;DHT22;10511;51.232;9.420;2022-10-18T02:46:54;15.00;99.90
20700;DHT22;10511;51.232;9.420;2022-10-18T02:49:21;15.00;99.90
20700;DHT22;10511;51.232;9.420;2022-10-18T02:51:48;14.90;99.90
20700;DHT22;10511;51.232;9.420;2022-10-18T02:54:15;14.90;99.90
20700;DHT22;10511;51.232;9.420;2022-10-18T02:56:42;14.90;99.90
20700;DHT22;10511;51.232;9.420;2022-10-18T02:59:10;15.00;99.90
20700;DHT22;10511;51.232;9.420;2022-10-18T03:01:37;15.00;99.90
20700;DHT22;10511;51.232;9.420;2022-10-18T03:04:05;15.00;99.90
20700;DHT22;10511;51.232;9.420;2022-10-18T03:06:32;15.00;99.90
20700;DHT22;10511;51.232;9.420;2022-10-18T03:09:01;15.00;99.90
20700;DHT22;10511;51.232;9.420;2022-10-18T03:11:28;15.00;99.90
20700;DHT22;10511;51.232;9.420;2022-10-18T03:13:55;14.90;99.90
20700;DHT22;10511;51.232;9.420;2022-10-18T03:16:22;14.90;99.90
20700;DHT22;10511;51.232;9.420;2022-10-18T03:18:49;14.90;99.90
20700;DHT22;10511;51.232;9.420;2022-10-18T03:21:18;14.80;99.90
20700;DHT22;10511;51.232;9.420;2022-10-18T03:23:44;14.80;99.90
20700;DHT22;10511;51.232;9.420;2022-10-18T03:26:11;14.80;99.90
20700;DHT22;10511;51.232;9.420;2022-10-18T03:28:38;14.80;99.90
20700;DHT22;10511;51.232;9.420;2022-10-18T03:31:05;14.80;99.90
20700;DHT22;10511;51.232;9.420;2022-10-18T03:33:32;14.80;99.90
20700;DHT22;10511;51.232;9.420;2022-10-18T03:35:59;14.90;99.90
20700;DHT22;10511;51.232;9.420;2022-10-18T03:38:28;14.90;99.90
20700;DHT22;10511;51.232;9.420;2022-10-18T03:40:55;14.90;99.90
20700;DHT22;10511;51.232;9.420;2022-10-18T03:43:22;14.80;99.90
20700;DHT22;10511;51.232;9.420;2022-10-18T03:45:49;14.80;99.90
20700;DHT22;10511;51.232;9.420;2022-10-18T03:48:16;14.80;99.90
20700;DHT22;10511;51.232;9.420;2022-10-18T03:50:43;14.80;99.90
20700;DHT22;10511;51.232;9.420;2022-10-18T03:53:10;14.80;99.90
20700;DHT22;10511;51.232;9.420;2022-10-18T03:55:38;14.80;99.90
20700;DHT22;10511;51.232;9.420;2022-10-18T03:58:06;14.80;99.90
20700;DHT22;10511;51.232;9.420;2022-10-18T04:00:33;14.80;99.90
20700;DHT22;10511;51.232;9.420;2022-10-18T04:03:00;14.80;99.90
20700;DHT22;10511;51.232;9.420;2022-10-18T04:05:27;14.80;99.90
20700;DHT22;10511;51.232;9.420;2022-10-18T04:07:55;14.80;99.90
20700;DHT22;10511;51.232;9.420;2022-10-18T04:10:23;14.80;99.90
20700;DHT22;10511;51.232;9.420;2022-10-18T04:12:51;14.80;99.90
20700;DHT22;10511;51.232;9.420;2022-10-18T04:15:18;14.80;99.90
20700;DHT22;10511;51.232;9.420;2022-10-18T04:17:45;14.80;99.90
20700;DHT22;10511;51.232;9.420;2022-10-18T04:20:12;14.80;99.90
20700;DHT22;10511;51.232;9.420;2022-10-18T04:22:39;14.80;99.90
20700;DHT22;10511;51.232;9.420;2022-10-18T04:25:07;14.80;99.90
20700;DHT22;10511;51.232;9.420;2022-10-18T04:27:34;14.80;99.90
20700;DHT22;10511;51.232;9.420;2022-10-18T04:30:03;14.80;99.90
20700;DHT22;10511;51.232;9.420;2022-10-18T04:32:30;14.80;99.90
20700;DHT22;10511;51.232;9.420;2022-10-18T04:34:59;14.70;99.90
20700;DHT22;10511;51.232;9.420;2022-10-18T04:37:26;14.70;99.90
20700;DHT22;10511;51.232;9.420;2022-10-18T04:39:53;14.70;99.90
20700;DHT22;10511;51.232;9.420;2022-10-18T04:42:20;14.60;99.90
20700;DHT22;10511;51.232;9.420;2022-10-18T04:44:47;14.60;99.90
20700;DHT22;10511;51.232;9.420;2022-10-18T04:47:16;14.50;99.90
20700;DHT22;10511;51.232;9.420;2022-10-18T04:49:43;14.50;99.90
20700;DHT22;10511;51.232;9.420;2022-10-18T04:52:10;14.50;99.90
20700;DHT22;10511;51.232;9.420;2022-10-18T04:54:38;14.50;99.90
20700;DHT22;10511;51.232;9.420;2022-10-18T04:57:04;14.50;99.90
20700;DHT22;10511;51.232;9.420;2022-10-18T04:59:31;14.50;99.90
20700;DHT22;10511;51.232;9.420;2022-10-18T05:01:58;14.50;99.90
20700;DHT22;10511;51.232;9.420;2022-10-18T05:04:27;14.60;99.90
20700;DHT22;10511;51.232;9.420;2022-10-18T05:06:54;14.60;99.90
20700;DHT22;10511;51.232;9.420;2022-10-18T05:09:21;14.50;99.90
20700;DHT22;10511;51.232;9.420;2022-10-18T05:11:49;14.50;99.90
20700;DHT22;10511;51.232;9.420;2022-10-18T05:14:16;14.50;99.90
20700;DHT22;10511;51.232;9.420;2022-10-18T05:16:43;14.50;99.90
20700;DHT22;10511;51.232;9.420;2022-10-18T05:19:10;14.50;99.90
20700;DHT22;10511;51.232;9.420;2022-10-18T05:21:39;14.70;99.90
20700;DHT22;10511;51.232;9.420;2022-10-18T05:24:06;14.90;99.90
20700;DHT22;10511;51.232;9.420;2022-10-18T05:26:33;14.90;99.90
20700;DHT22;10511;51.232;9.420;2022-10-18T05:29:00;14.90;99.90
20700;DHT22;10511;51.232;9.420;2022-10-18T05:31:26;14.80;99.90
20700;DHT22;10511;51.232;9.420;2022-10-18T05:33:54;14.70;99.90
20700;DHT22;10511;51.232;9.420;2022-10-18T05:36:21;14.80;99.90
20700;DHT22;10511;51.232;9.420;2022-10-18T05:38:51;14.80;99.90
20700;DHT22;10511;51.232;9.420;2022-10-18T05:41:18;14.80;99.90
20700;DHT22;10511;51.232;9.420;2022-10-18T05:43:45;14.70;99.90
20700;DHT22;10511;51.232;9.420;2022-10-18T05:46:12;14.60;99.90
20700;DHT22;10511;51.232;9.420;2022-10-18T05:48:39;14.60;99.90
20700;DHT22;10511;51.232;9.420;2022-10-18T05:51:06;14.60;99.90
20700;DHT22;10511;51.232;9.420;2022-10-18T05:53:33;14.60;99.90
20700;DHT22;10511;51.232;9.420;2022-10-18T05:56:02;14.60;99.90
20700;DHT22;10511;51.232;9.420;2022-10-18T05:58:29;14.60;99.90
20700;DHT22;10511;51.232;9.420;2022-10-18T06:00:57;14.60;99.90
20700;DHT22;10511;51.232;9.420;2022-10-18T06:03:25;14.60;99.90
20700;DHT22;10511;51.232;9.420;2022-10-18T06:05:58;14.60;99.90
20700;DHT22;10511;51.232;9.420;2022-10-18T06:08:26;14.50;99.90
20700;DHT22;10511;51.232;9.420;2022-10-18T06:10:53;14.50;99.90
20700;DHT22;10511;51.232;9.420;2022-10-18T06:13:22;14.50;99.90
20700;DHT22;10511;51.232;9.420;2022-10-18T06:15:49;14.50;99.90
20700;DHT22;10511;51.232;9.420;2022-10-18T06:18:16;14.50;99.90
20700;DHT22;10511;51.232;9.420;2022-10-18T06:20:43;14.50;99.90
20700;DHT22;10511;51.232;9.420;2022-10-18T06:23:10;14.50;99.90
20700;DHT22;10511;51.232;9.420;2022-10-18T06:25:37;14.50;99.90
20700;DHT22;10511;51.232;9.420;2022-10-18T06:28:04;14.40;99.90
20700;DHT22;10511;51.232;9.420;2022-10-18T06:30:32;14.40;99.90
20700;DHT22;10511;51.232;9.420;2022-10-18T06:32:59;14.40;99.90
20700;DHT22;10511;51.232;9.420;2022-10-18T06:35:26;14.40;99.90
20700;DHT22;10511;51.232;9.420;2022-10-18T06:37:54;14.40;99.90
20700;DHT22;10511;51.232;9.420;2022-10-18T06:40:22;14.40;99.90
20700;DHT22;10511;51.232;9.420;2022-10-18T06:42:49;14.40;99.90
20700;DHT22;10511;51.232;9.420;2022-10-18T06:45:16;14.40;99.90
20700;DHT22;10511;51.232;9.420;2022-10-18T06:47:44;14.40;99.90
20700;DHT22;10511;51.232;9.420;2022-10-18T06:50:11;14.40;99.90
20700;DHT22;10511;51.232;9.420;2022-10-18T06:52:38;14.40;99.90
20700;DHT22;10511;51.232;9.420;2022-10-18T06:55:07;14.40;99.90
20700;DHT22;10511;51.232;9.420;2022-10-18T06:57:34;14.40;99.90
20700;DHT22;10511;51.232;9.420;2022-10-18T07:00:03;14.40;99.90
20700;DHT22;10511;51.232;9.420;2022-10-18T07:02:30;14.40;99.90
20700;DHT22;10511;51.232;9.420;2022-10-18T07:04:58;14.40;99.90
20700;DHT22;10511;51.232;9.420;2022-10-18T07:07:25;14.40;99.90
20700;DHT22;10511;51.232;9.420;2022-10-18T07:09:52;14.40;99.90
20700;DHT22;10511;51.232;9.420;2022-10-18T07:12:19;14.40;99.90
20700;DHT22;10511;51.232;9.420;2022-10-18T07:14:46;14.50;99.90
20700;DHT22;10511;51.232;9.420;2022-10-18T07:17:13;14.50;99.90
20700;DHT22;10511;51.232;9.420;2022-10-18T07:19:40;14.50;99.90
20700;DHT22;10511;51.232;9.420;2022-10-18T07:22:08;14.50;99.90
20700;DHT22;10511;51.232;9.420;2022-10-18T07:24:35;14.50;99.90
20700;DHT22;10511;51.232;9.420;2022-10-18T07:27:02;14.50;99.90
20700;DHT22;10511;51.232;9.420;2022-10-18T07:29:29;14.50;99.90
20700;DHT22;10511;51.232;9.420;2022-10-18T07:31:56;14.50;99.90
20700;DHT22;10511;51.232;9.420;2022-10-18T07:34:23;14.60;99.90
20700;DHT22;10511;51.232;9.420;2022-10-18T07:36:50;14.60;99.90
20700;DHT22;10511;51.232;9.420;2022-10-18T07:39:18;14.60;99.90
20700;DHT22;10511;51.232;9.420;2022-10-18T07:41:45;14.60;99.90
20700;DHT22;10511;51.232;9.420;2022-10-18T07:44:12;14.60;99.90
20700;DHT22;10511;51.232;9.420;2022-10-18T07:46:39;14.70;99.90
20700;DHT22;10511;51.232;9.420;2022-10-18T07:49:06;14.80;99.90
20700;DHT22;10511;51.232;9.420;2022-10-18T07:51:33;14.80;99.90
20700;DHT22;10511;51.232;9.420;2022-10-18T07:54:00;14.80;99.90
20700;DHT22;10511;51.232;9.420;2022-10-18T07:56:29;14.80;99.90
20700;DHT22;10511;51.232;9.420;2022-10-18T07:58:56;14.90;99.90
20700;DHT22;10511;51.232;9.420;2022-10-18T08:01:23;15.00;99.90
20700;DHT22;10511;51.232;9.420;2022-10-18T08:03:51;15.00;99.90
20700;DHT22;10511;51.232;9.420;2022-10-18T08:06:19;14.90;99.90
20700;DHT22;10511;51.232;9.420;2022-10-18T08:08:47;14.90;99.90
20700;DHT22;10511;51.232;9.420;2022-10-18T08:11:17;15.00;99.90
20700;DHT22;10511;51.232;9.420;2022-10-18T08:13:46;15.00;99.90
20700;DHT22;10511;51.232;9.420;2022-10-18T08:16:15;15.00;99.90
20700;DHT22;10511;51.232;9.420;2022-10-18T08:18:42;15.00;99.90
20700;DHT22;10511;51.232;9.420;2022-10-18T08:21:11;14.90;99.90
20700;DHT22;10511;51.232;9.420;2022-10-18T08:23:38;14.90;99.90
20700;DHT22;10511;51.232;9.420;2022-10-18T08:26:07;15.00;99.90
20700;DHT22;10511;51.232;9.420;2022-10-18T08:28:34;15.00;99.90
20700;DHT22;10511;51.232;9.420;2022-10-18T08:31:04;15.00;99.90
20700;DHT22;10511;51.232;9.420;2022-10-18T08:33:31;14.90;99.90
20700;DHT22;10511;51.232;9.420;2022-10-18T08:36:01;14.90;99.90
20700;DHT22;10511;51.232;9.420;2022-10-18T08:38:30;14.80;99.90
20700;DHT22;10511;51.232;9.420;2022-10-18T08:40:59;14.80;99.90
20700;DHT22;10511;51.232;9.420;2022-10-18T08:43:32;14.80;99.90
20700;DHT22;10511;51.232;9.420;2022-10-18T08:46:01;14.80;99.90
20700;DHT22;10511;51.232;9.420;2022-10-18T08:48:34;14.80;99.90
20700;DHT22;10511;51.232;9.420;2022-10-18T08:51:03;14.80;99.90
20700;DHT22;10511;51.232;9.420;2022-10-18T08:53:38;14.80;99.90
20700;DHT22;10511;51.232;9.420;2022-10-18T08:56:11;14.70;99.90
20700;DHT22;10511;51.232;9.420;2022-10-18T08:58:41;14.80;99.90
20700;DHT22;10511;51.232;9.420;2022-10-18T09:01:23;14.80;99.90
20700;DHT22;10511;51.232;9.420;2022-10-18T09:04:07;14.80;99.90
20700;DHT22;10511;51.232;9.420;2022-10-18T09:06:38;14.90;99.90
20700;DHT22;10511;51.232;9.420;2022-10-18T09:09:23;14.90;99.90
20700;DHT22;10511;51.232;9.420;2022-10-18T09:11:57;15.00;99.90
20700;DHT22;10511;51.232;9.420;2022-10-18T09:14:54;15.10;99.90
20700;DHT22;10511;51.232;9.420;2022-10-18T09:17:31;15.10;99.90
20700;DHT22;10511;51.232;9.420;2022-10-18T09:20:19;15.10;99.90
20700;DHT22;10511;51.232;9.420;2022-10-18T09:22:53;15.10;99.90
20700;DHT22;10511;51.232;9.420;2022-10-18T09:25:23;15.10;99.90
20700;DHT22;10511;51.232;9.420;2022-10-18T09:27:53;15.10;99.90
20700;DHT22;10511;51.232;9.420;2022-10-18T09:30:32;15.20;99.90
20700;DHT22;10511;51.232;9.420;2022-10-18T09:33:12;15.20;99.90
20700;DHT22;10511;51.232;9.420;2022-10-18T09:35:48;15.10;99.90
20700;DHT22;10511;51.232;9.420;2022-10-18T09:38:21;15.10;99.90
20700;DHT22;10511;51.232;9.420;2022-10-18T09:40:53;15.10;99.90
20700;DHT22;10511;51.232;9.420;2022-10-18T09:43:23;15.30;99.90
20700;DHT22;10511;51.232;9.420;2022-10-18T09:45:52;15.30;99.90
20700;DHT22;10511;51.232;9.420;2022-10-18T09:48:24;15.30;99.90
20700;DHT22;10511;51.232;9.420;2022-10-18T09:50:57;15.40;99.90
20700;DHT22;10511;51.232;9.420;2022-10-18T09:53:32;15.40;99.90
20700;DHT22;10511;51.232;9.420;2022-10-18T09:56:02;15.40;99.90
20700;DHT22;10511;51.232;9.420;2022-10-18T09:58:42;15.40;99.90
20700;DHT22;10511;51.232;9.420;2022-10-18T10:01:12;15.40;99.90
20700;DHT22;10511;51.232;9.420;2022-10-18T10:03:41;15.50;99.90
20700;DHT22;10511;51.232;9.420;2022-10-18T10:06:22;15.50;99.90
20700;DHT22;10511;51.232;9.420;2022-10-18T10:08:54;15.70;99.90
20700;DHT22;10511;51.232;9.420;2022-10-18T10:11:29;15.70;99.90
20700;DHT22;10511;51.232;9.420;2022-10-18T10:13:57;15.80;99.90
20700;DHT22;10511;51.232;9.420;2022-10-18T10:16:32;15.80;99.90
20700;DHT22;10511;51.232;9.420;2022-10-18T10:19:00;15.80;99.90
20700;DHT22;10511;51.232;9.420;2022-10-18T10:21:29;15.80;99.90
20700;DHT22;10511;51.232;9.420;2022-10-18T10:23:57;15.80;99.90
20700;DHT22;10511;51.232;9.420;2022-10-18T10:26:28;15.80;99.90
20700;DHT22;10511;51.232;9.420;2022-10-18T10:28:56;15.80;99.90
20700;DHT22;10511;51.232;9.420;2022-10-18T10:31:27;15.70;99.90
20700;DHT22;10511;51.232;9.420;2022-10-18T10:33:59;15.80;99.90
20700;DHT22;10511;51.232;9.420;2022-10-18T10:36:27;15.80;99.90
20700;DHT22;10511;51.232;9.420;2022-10-18T10:39:08;16.00;99.90
20700;DHT22;10511;51.232;9.420;2022-10-18T10:41:37;16.10;99.90
20700;DHT22;10511;51.232;9.420;2022-10-18T10:44:14;16.30;99.90
20700;DHT22;10511;51.232;9.420;2022-10-18T10:46:42;16.40;99.90
20700;DHT22;10511;51.232;9.420;2022-10-18T10:49:16;16.40;99.90
20700;DHT22;10511;51.232;9.420;2022-10-18T10:51:44;16.50;99.90
20700;DHT22;10511;51.232;9.420;2022-10-18T10:54:15;16.70;99.90
20700;DHT22;10511;51.232;9.420;2022-10-18T10:56:53;16.80;99.90
20700;DHT22;10511;51.232;9.420;2022-10-18T10:59:22;16.90;99.90
20700;DHT22;10511;51.232;9.420;2022-10-18T11:02:15;17.00;99.90
20700;DHT22;10511;51.232;9.420;2022-10-18T11:04:46;17.00;99.90
20700;DHT22;10511;51.232;9.420;2022-10-18T11:07:20;17.00;99.90
20700;DHT22;10511;51.232;9.420;2022-10-18T11:09:53;17.00;99.90
20700;DHT22;10511;51.232;9.420;2022-10-18T11:12:30;16.90;99.90
20700;DHT22;10511;51.232;9.420;2022-10-18T11:15:13;16.90;99.90
20700;DHT22;10511;51.232;9.420;2022-10-18T11:17:46;17.10;99.90
20700;DHT22;10511;51.232;9.420;2022-10-18T11:20:21;17.20;99.90
20700;DHT22;10511;51.232;9.420;2022-10-18T11:23:00;17.00;99.90
20700;DHT22;10511;51.232;9.420;2022-10-18T11:25:56;17.00;99.90
20700;DHT22;10511;51.232;9.420;2022-10-18T11:28:32;16.90;99.90
20700;DHT22;10511;51.232;9.420;2022-10-18T11:31:13;16.90;99.90
20700;DHT22;10511;51.232;9.420;2022-10-18T11:33:51;16.80;99.90
20700;DHT22;10511;51.232;9.420;2022-10-18T11:36:26;16.80;99.90
20700;DHT22;10511;51.232;9.420;2022-10-18T11:39:02;16.80;99.90
20700;DHT22;10511;51.232;9.420;2022-10-18T11:41:37;16.90;99.90
20700;DHT22;10511;51.232;9.420;2022-10-18T11:44:13;17.20;99.90
20700;DHT22;10511;51.232;9.420;2022-10-18T11:46:50;17.40;99.90
20700;DHT22;10511;51.232;9.420;2022-10-18T11:52:20;17.70;99.90
20700;DHT22;10511;51.232;9.420;2022-10-18T11:55:20;17.90;99.90
20700;DHT22;10511;51.232;9.420;2022-10-18T11:57:58;18.10;99.90
20700;DHT22;10511;51.232;9.420;2022-10-18T12:00:43;18.40;99.90
20700;DHT22;10511;51.232;9.420;2022-10-18T12:03:20;18.50;99.90
20700;DHT22;10511;51.232;9.420;2022-10-18T12:05:51;18.40;99.90
20700;DHT22;10511;51.232;9.420;2022-10-18T12:08:22;18.40;99.90
20700;DHT22;10511;51.232;9.420;2022-10-18T12:10:52;18.50;99.90
20700;DHT22;10511;51.232;9.420;2022-10-18T12:13:28;18.40;99.90
20700;DHT22;10511;51.232;9.420;2022-10-18T12:15:56;18.20;99.90
20700;DHT22;10511;51.232;9.420;2022-10-18T12:18:24;17.80;99.90
20700;DHT22;10511;51.232;9.420;2022-10-18T12:20:54;17.70;99.90
20700;DHT22;10511;51.232;9.420;2022-10-18T12:23:35;17.60;99.90
20700;DHT22;10511;51.232;9.420;2022-10-18T12:26:05;17.70;99.90
20700;DHT22;10511;51.232;9.420;2022-10-18T12:28:41;17.80;99.90
20700;DHT22;10511;51.232;9.420;2022-10-18T12:31:16;17.70;99.90
20700;DHT22;10511;51.232;9.420;2022-10-18T12:33:46;17.80;99.90
20700;DHT22;10511;51.232;9.420;2022-10-18T12:36:26;17.80;99.90
20700;DHT22;10511;51.232;9.420;2022-10-18T12:38:58;17.90;99.90
20700;DHT22;10511;51.232;9.420;2022-10-18T12:41:28;17.90;99.90
20700;DHT22;10511;51.232;9.420;2022-10-18T12:43:59;17.90;99.90
20700;DHT22;10511;51.232;9.420;2022-10-18T12:46:43;17.80;99.90
20700;DHT22;10511;51.232;9.420;2022-10-18T12:49:12;17.50;99.90
20700;DHT22;10511;51.232;9.420;2022-10-18T12:51:50;17.40;99.90
20700;DHT22;10511;51.232;9.420;2022-10-18T12:54:21;17.20;99.90
20700;DHT22;10511;51.232;9.420;2022-10-18T12:56:49;17.00;99.90
20700;DHT22;10511;51.232;9.420;2022-10-18T12:59:41;16.90;99.90
20700;DHT22;10511;51.232;9.420;2022-10-18T13:02:22;16.90;99.90
20700;DHT22;10511;51.232;9.420;2022-10-18T13:04:49;16.90;99.90
20700;DHT22;10511;51.232;9.420;2022-10-18T13:07:37;17.00;99.90
20700;DHT22;10511;51.232;9.420;2022-10-18T13:10:32;17.00;99.90
20700;DHT22;10511;51.232;9.420;2022-10-18T13:15:54;17.00;99.90
20700;DHT22;10511;51.232;9.420;2022-10-18T13:18:28;17.10;99.90
20700;DHT22;10511;51.232;9.420;2022-10-18T13:21:09;17.10;99.90
20700;DHT22;10511;51.232;9.420;2022-10-18T13:23:45;17.20;99.90
20700;DHT22;10511;51.232;9.420;2022-10-18T13:26:20;17.30;99.90
20700;DHT22;10511;51.232;9.420;2022-10-18T13:28:54;17.30;99.90
20700;DHT22;10511;51.232;9.420;2022-10-18T13:31:28;17.40;99.90
20700;DHT22;10511;51.232;9.420;2022-10-18T13:34:16;17.40;99.90
20700;DHT22;10511;51.232;9.420;2022-10-18T13:36:55;17.30;99.90
20700;DHT22;10511;51.232;9.420;2022-10-18T13:39:23;17.30;99.90
20700;DHT22;10511;51.232;9.420;2022-10-18T13:42:27;17.20;99.90
20700;DHT22;10511;51.232;9.420;2022-10-18T13:44:54;17.20;99.90
20700;DHT22;10511;51.232;9.420;2022-10-18T13:47:42;17.20;99.90
20700;DHT22;10511;51.232;9.420;2022-10-18T13:50:31;17.30;99.90
20700;DHT22;10511;51.232;9.420;2022-10-18T13:53:38;17.30;99.90
20700;DHT22;10511;51.232;9.420;2022-10-18T13:59:24;17.30;99.90
20700;DHT22;10511;51.232;9.420;2022-10-18T14:02:08;17.50;99.90
20700;DHT22;10511;51.232;9.420;2022-10-18T14:05:12;17.50;99.90
20700;DHT22;10511;51.232;9.420;2022-10-18T14:07:42;17.60;99.90
20700;DHT22;10511;51.232;9.420;2022-10-18T14:10:19;17.60;99.90
20700;DHT22;10511;51.232;9.420;2022-10-18T14:12:51;17.60;99.90
20700;DHT22;10511;51.232;9.420;2022-10-18T14:15:23;17.50;99.90
20700;DHT22;10511;51.232;9.420;2022-10-18T14:17:52;17.50;99.90
20700;DHT22;10511;51.232;9.420;2022-10-18T14:20:25;17.50;99.90
20700;DHT22;10511;51.232;9.420;2022-10-18T14:22:56;17.70;99.90
20700;DHT22;10511;51.232;9.420;2022-10-18T14:25:29;17.80;99.90
20700;DHT22;10511;51.232;9.420;2022-10-18T14:28:12;17.80;99.90
20700;DHT22;10511;51.232;9.420;2022-10-18T14:30:55;17.60;99.90
20700;DHT22;10511;51.232;9.420;2022-10-18T14:33:30;17.60;99.90
20700;DHT22;10511;51.232;9.420;2022-10-18T14:36:03;17.60;99.90
20700;DHT22;10511;51.232;9.420;2022-10-18T14:38:31;17.60;99.90
20700;DHT22;10511;51.232;9.420;2022-10-18T14:41:10;17.60;99.90
20700;DHT22;10511;51.232;9.420;2022-10-18T14:43:38;17.50;99.90
20700;DHT22;10511;51.232;9.420;2022-10-18T14:46:18;17.60;99.90
20700;DHT22;10511;51.232;9.420;2022-10-18T14:48:54;17.60;99.90
20700;DHT22;10511;51.232;9.420;2022-10-18T14:51:23;17.50;99.90
20700;DHT22;10511;51.232;9.420;2022-10-18T14:53:51;17.50;99.90
20700;DHT22;10511;51.232;9.420;2022-10-18T14:56:25;17.60;99.90
20700;DHT22;10511;51.232;9.420;2022-10-18T14:58:54;17.50;99.90
20700;DHT22;10511;51.232;9.420;2022-10-18T15:01:23;17.40;99.90
20700;DHT22;10511;51.232;9.420;2022-10-18T15:03:55;17.40;99.90
20700;DHT22;10511;51.232;9.420;2022-10-18T15:06:24;17.50;99.90
20700;DHT22;10511;51.232;9.420;2022-10-18T15:08:56;17.40;99.90
20700;DHT22;10511;51.232;9.420;2022-10-18T15:11:24;17.30;99.90
20700;DHT22;10511;51.232;9.420;2022-10-18T15:13:53;17.30;99.90
20700;DHT22;10511;51.232;9.420;2022-10-18T15:16:23;17.30;99.90
20700;DHT22;10511;51.232;9.420;2022-10-18T15:19:03;17.30;99.90
20700;DHT22;10511;51.232;9.420;2022-10-18T15:21:33;17.20;99.90
20700;DHT22;10511;51.232;9.420;2022-10-18T15:24:19;17.10;99.90
20700;DHT22;10511;51.232;9.420;2022-10-18T15:26:47;17.10;99.90
20700;DHT22;10511;51.232;9.420;2022-10-18T15:29:16;17.10;99.90
20700;DHT22;10511;51.232;9.420;2022-10-18T15:31:45;17.00;99.90
20700;DHT22;10511;51.232;9.420;2022-10-18T15:34:17;17.00;99.90
20700;DHT22;10511;51.232;9.420;2022-10-18T15:36:47;16.90;99.90
20700;DHT22;10511;51.232;9.420;2022-10-18T15:39:16;16.90;99.90
20700;DHT22;10511;51.232;9.420;2022-10-18T15:41:48;16.90;99.90
20700;DHT22;10511;51.232;9.420;2022-10-18T15:44:22;16.90;99.90
20700;DHT22;10511;51.232;9.420;2022-10-18T15:46:51;16.70;99.90
20700;DHT22;10511;51.232;9.420;2022-10-18T15:52:37;16.60;99.90
20700;DHT22;10511;51.232;9.420;2022-10-18T15:55:44;16.60;99.90
20700;DHT22;10511;51.232;9.420;2022-10-18T15:58:16;16.50;99.90
20700;DHT22;10511;51.232;9.420;2022-10-18T16:00:44;16.50;99.90
20700;DHT22;10511;51.232;9.420;2022-10-18T16:03:12;16.50;99.90
20700;DHT22;10511;51.232;9.420;2022-10-18T16:05:39;16.40;99.90
20700;DHT22;10511;51.232;9.420;2022-10-18T16:08:19;16.30;99.90
20700;DHT22;10511;51.232;9.420;2022-10-18T16:10:46;16.20;99.90